sensor_id;sensor_type;location;lat;lon;timestamp;pressure;altitude;pressure_sealevel;temperature;humidity
64739;BME280;51175;51.186;0.276;2022-12-29T00:00:23;99278.38;;;14.38;76.78
64739;BME280;51175;51.186;0.276;2022-12-29T00:00:53;99275.72;;;14.38;76.85
64739;BME280;51175;51.186;0.276;2022-12-29T00:01:24;99281.03;;;14.38;76.41
64739;BME280;51175;51.186;0.276;2022-12-29T00:01:54;99272.28;;;14.37;76.71
64739;BME280;51175;51.186;0.276;2022-12-29T00:02:25;99271.53;;;14.37;76.29
64739;BME280;51175;51.186;0.276;2022-12-29T00:02:56;99273.06;;;14.38;76.51
64739;BME280;51175;51.186;0.276;2022-12-29T00:03:26;99269.63;;;14.37;76.41
64739;BME280;51175;51.186;0.276;2022-12-29T00:03:56;99272.28;;;14.37;76.75
64739;BME280;51175;51.186;0.276;2022-12-29T00:04:27;99274.94;;;14.37;76.66
64739;BME280;51175;51.186;0.276;2022-12-29T00:04:57;99273.06;;;14.38;76.43
64739;BME280;51175;51.186;0.276;2022-12-29T00:05:27;99271.53;;;14.37;76.64
64739;BME280;51175;51.186;0.276;2022-12-29T00:05:58;99271.53;;;14.37;76.47
64739;BME280;51175;51.186;0.276;2022-12-29T00:06:28;99277.59;;;14.37;76.63
64739;BME280;51175;51.186;0.276;2022-12-29T00:06:59;99264.31;;;14.37;76.71
64739;BME280;51175;51.186;0.276;2022-12-29T00:07:29;99265.09;;;14.38;76.57
64739;BME280;51175;51.186;0.276;2022-12-29T00:08:00;99259.00;;;14.37;76.67
64739;BME280;51175;51.186;0.276;2022-12-29T00:08:30;99262.75;;;14.36;76.69
64739;BME280;51175;51.186;0.276;2022-12-29T00:09:13;99261.66;;;14.37;76.34
64739;BME280;51175;51.186;0.276;2022-12-29T00:09:44;99264.31;;;14.37;76.63
64739;BME280;51175;51.186;0.276;2022-12-29T00:10:14;99259.31;;;14.36;76.37
64739;BME280;51175;51.186;0.276;2022-12-29T00:10:45;99262.75;;;14.36;76.58
64739;BME280;51175;51.186;0.276;2022-12-29T00:11:18;99267.28;;;14.36;76.79
64739;BME280;51175;51.186;0.276;2022-12-29T00:11:48;99261.22;;;14.35;76.82
64739;BME280;51175;51.186;0.276;2022-12-29T00:12:20;99258.56;;;14.35;76.60
64739;BME280;51175;51.186;0.276;2022-12-29T00:12:50;99265.44;;;14.36;76.56
64739;BME280;51175;51.186;0.276;2022-12-29T00:13:39;99261.97;;;14.36;76.38
64739;BME280;51175;51.186;0.276;2022-12-29T00:14:29;99254.31;;;14.34;76.42
64739;BME280;51175;51.186;0.276;2022-12-29T00:15:18;99257.78;;;14.35;76.43
64739;BME280;51175;51.186;0.276;2022-12-29T00:16:07;99259.63;;;14.34;76.62
64739;BME280;51175;51.186;0.276;2022-12-29T00:16:39;99253.56;;;14.34;76.58
64739;BME280;51175;51.186;0.276;2022-12-29T00:17:10;99254.63;;;14.33;76.72
64739;BME280;51175;51.186;0.276;2022-12-29T00:17:40;99258.88;;;14.34;76.47
64739;BME280;51175;51.186;0.276;2022-12-29T00:18:11;99258.09;;;14.33;76.32
64739;BME280;51175;51.186;0.276;2022-12-29T00:18:41;99256.50;;;14.32;76.45
64739;BME280;51175;51.186;0.276;2022-12-29T00:19:13;99259.94;;;14.33;76.74
64739;BME280;51175;51.186;0.276;2022-12-29T00:20:04;99256.50;;;14.32;76.56
64739;BME280;51175;51.186;0.276;2022-12-29T00:20:54;99253.09;;;14.32;76.50
64739;BME280;51175;51.186;0.276;2022-12-29T00:21:43;99244.34;;;14.31;76.57
64739;BME280;51175;51.186;0.276;2022-12-29T00:22:32;99262.13;;;14.31;76.68
64739;BME280;51175;51.186;0.276;2022-12-29T00:23:21;99248.09;;;14.30;76.54
64739;BME280;51175;51.186;0.276;2022-12-29T00:24:16;99250.75;;;14.30;76.51
64739;BME280;51175;51.186;0.276;2022-12-29T00:24:56;99249.97;;;14.30;76.56
64739;BME280;51175;51.186;0.276;2022-12-29T00:25:40;99243.84;;;14.29;76.60
64739;BME280;51175;51.186;0.276;2022-12-29T00:26:29;99249.16;;;14.29;76.83
64739;BME280;51175;51.186;0.276;2022-12-29T00:27:18;99247.63;;;14.28;76.46
64739;BME280;51175;51.186;0.276;2022-12-29T00:28:10;99238.09;;;14.27;76.48
64739;BME280;51175;51.186;0.276;2022-12-29T00:28:59;99241.84;;;14.26;76.61
64739;BME280;51175;51.186;0.276;2022-12-29T00:29:49;99239.97;;;14.26;76.60
64739;BME280;51175;51.186;0.276;2022-12-29T00:30:38;99240.28;;;14.25;76.78
64739;BME280;51175;51.186;0.276;2022-12-29T00:31:27;99232.31;;;14.25;76.68
64739;BME280;51175;51.186;0.276;2022-12-29T00:32:16;99233.41;;;14.24;76.55
64739;BME280;51175;51.186;0.276;2022-12-29T00:33:13;99231.53;;;14.24;76.67
64739;BME280;51175;51.186;0.276;2022-12-29T00:34:03;99244.03;;;14.24;76.96
64739;BME280;51175;51.186;0.276;2022-12-29T00:34:52;99219.34;;;14.23;77.05
64739;BME280;51175;51.186;0.276;2022-12-29T00:36:39;99217.81;;;14.22;76.80
64739;BME280;51175;51.186;0.276;2022-12-29T00:37:11;99224.19;;;14.21;77.00
64739;BME280;51175;51.186;0.276;2022-12-29T00:37:44;99228.44;;;14.22;76.88
64739;BME280;51175;51.186;0.276;2022-12-29T00:38:37;99220.78;;;14.21;76.97
64739;BME280;51175;51.186;0.276;2022-12-29T00:39:27;99228.75;;;14.21;76.98
64739;BME280;51175;51.186;0.276;2022-12-29T00:40:16;99229.50;;;14.21;77.03
64739;BME280;51175;51.186;0.276;2022-12-29T00:41:05;99224.19;;;14.21;76.78
64739;BME280;51175;51.186;0.276;2022-12-29T00:41:54;99219.97;;;14.20;77.05
64739;BME280;51175;51.186;0.276;2022-12-29T00:42:43;99215.47;;;14.21;76.84
64739;BME280;51175;51.186;0.276;2022-12-29T00:43:33;99222.63;;;14.20;76.76
64739;BME280;51175;51.186;0.276;2022-12-29T00:44:22;99235.91;;;14.20;77.13
64739;BME280;51175;51.186;0.276;2022-12-29T00:44:53;99227.47;;;14.18;76.94
64739;BME280;51175;51.186;0.276;2022-12-29T00:45:23;99230.13;;;14.18;76.75
64739;BME280;51175;51.186;0.276;2022-12-29T00:45:53;99236.22;;;14.19;76.76
64739;BME280;51175;51.186;0.276;2022-12-29T00:46:24;99225.63;;;14.19;76.85
64739;BME280;51175;51.186;0.276;2022-12-29T00:46:54;99231.72;;;14.19;77.20
64739;BME280;51175;51.186;0.276;2022-12-29T00:47:24;99232.78;;;14.18;76.94
64739;BME280;51175;51.186;0.276;2022-12-29T00:47:55;99237.03;;;14.19;77.00
64739;BME280;51175;51.186;0.276;2022-12-29T00:48:26;99236.22;;;14.19;77.07
64739;BME280;51175;51.186;0.276;2022-12-29T00:49:15;99227.94;;;14.20;76.87
64739;BME280;51175;51.186;0.276;2022-12-29T00:50:01;99235.13;;;14.20;76.84
64739;BME280;51175;51.186;0.276;2022-12-29T00:50:31;99232.47;;;14.20;76.93
64739;BME280;51175;51.186;0.276;2022-12-29T00:51:02;99229.06;;;14.19;76.79
64739;BME280;51175;51.186;0.276;2022-12-29T00:51:32;99241.22;;;14.20;76.76
64739;BME280;51175;51.186;0.276;2022-12-29T00:52:08;99235.13;;;14.20;76.61
64739;BME280;51175;51.186;0.276;2022-12-29T00:52:38;99238.56;;;14.20;77.05
64739;BME280;51175;51.186;0.276;2022-12-29T00:53:09;99241.22;;;14.20;76.78
64739;BME280;51175;51.186;0.276;2022-12-29T00:53:39;99234.81;;;14.21;76.87
64739;BME280;51175;51.186;0.276;2022-12-29T00:54:10;99243.88;;;14.20;77.01
64739;BME280;51175;51.186;0.276;2022-12-29T00:54:41;99235.91;;;14.20;76.80
64739;BME280;51175;51.186;0.276;2022-12-29T00:55:11;99243.88;;;14.20;76.95
64739;BME280;51175;51.186;0.276;2022-12-29T00:55:42;99244.66;;;14.21;76.53
64739;BME280;51175;51.186;0.276;2022-12-29T00:56:12;99235.59;;;14.22;76.89
64739;BME280;51175;51.186;0.276;2022-12-29T00:56:42;99245.44;;;14.21;76.70
64739;BME280;51175;51.186;0.276;2022-12-29T00:57:13;99251.53;;;14.22;76.77
64739;BME280;51175;51.186;0.276;2022-12-29T00:57:43;99243.56;;;14.22;76.80
64739;BME280;51175;51.186;0.276;2022-12-29T00:58:14;99243.56;;;14.22;76.96
64739;BME280;51175;51.186;0.276;2022-12-29T00:58:44;99247.78;;;14.23;76.83
64739;BME280;51175;51.186;0.276;2022-12-29T00:59:14;99247.00;;;14.22;76.94
64739;BME280;51175;51.186;0.276;2022-12-29T00:59:45;99248.56;;;14.23;76.64
64739;BME280;51175;51.186;0.276;2022-12-29T01:00:15;99246.22;;;14.22;76.45
64739;BME280;51175;51.186;0.276;2022-12-29T01:00:45;99247.78;;;14.23;76.61
64739;BME280;51175;51.186;0.276;2022-12-29T01:01:16;99253.88;;;14.23;76.56
64739;BME280;51175;51.186;0.276;2022-12-29T01:01:47;99245.13;;;14.23;77.00
64739;BME280;51175;51.186;0.276;2022-12-29T01:02:18;99247.78;;;14.23;76.58
64739;BME280;51175;51.186;0.276;2022-12-29T01:02:48;99245.13;;;14.23;76.75
64739;BME280;51175;51.186;0.276;2022-12-29T01:03:18;99251.22;;;14.23;76.39
64739;BME280;51175;51.186;0.276;2022-12-29T01:03:49;99249.34;;;14.24;76.56
64739;BME280;51175;51.186;0.276;2022-12-29T01:04:21;99256.53;;;14.23;76.73
64739;BME280;51175;51.186;0.276;2022-12-29T01:04:51;99248.56;;;14.23;76.53
64739;BME280;51175;51.186;0.276;2022-12-29T01:05:22;99253.88;;;14.23;76.43
64739;BME280;51175;51.186;0.276;2022-12-29T01:05:52;99257.31;;;14.24;76.65
64739;BME280;51175;51.186;0.276;2022-12-29T01:06:23;99252.31;;;14.22;76.64
64739;BME280;51175;51.186;0.276;2022-12-29T01:06:53;99249.34;;;14.24;76.67
64739;BME280;51175;51.186;0.276;2022-12-29T01:07:23;99256.53;;;14.23;76.51
64739;BME280;51175;51.186;0.276;2022-12-29T01:07:54;99246.69;;;14.24;76.34
64739;BME280;51175;51.186;0.276;2022-12-29T01:08:27;99252.00;;;14.24;76.66
64739;BME280;51175;51.186;0.276;2022-12-29T01:08:57;99257.31;;;14.24;76.58
64739;BME280;51175;51.186;0.276;2022-12-29T01:09:46;99252.00;;;14.24;76.47
64739;BME280;51175;51.186;0.276;2022-12-29T01:10:35;99252.78;;;14.24;76.46
64739;BME280;51175;51.186;0.276;2022-12-29T01:11:08;99259.97;;;14.24;76.46
64739;BME280;51175;51.186;0.276;2022-12-29T01:11:39;99253.09;;;14.23;76.43
64739;BME280;51175;51.186;0.276;2022-12-29T01:12:10;99253.09;;;14.23;76.36
64739;BME280;51175;51.186;0.276;2022-12-29T01:12:41;99251.22;;;14.23;76.61
64739;BME280;51175;51.186;0.276;2022-12-29T01:13:11;99242.47;;;14.23;76.54
64739;BME280;51175;51.186;0.276;2022-12-29T01:13:42;99250.44;;;14.23;76.44
64739;BME280;51175;51.186;0.276;2022-12-29T01:14:14;99250.44;;;14.23;76.35
64739;BME280;51175;51.186;0.276;2022-12-29T01:14:44;99250.44;;;14.23;76.64
64739;BME280;51175;51.186;0.276;2022-12-29T01:15:15;99257.63;;;14.22;76.50
64739;BME280;51175;51.186;0.276;2022-12-29T01:15:52;99245.91;;;14.23;76.67
64739;BME280;51175;51.186;0.276;2022-12-29T01:16:23;99250.44;;;14.23;76.38
64739;BME280;51175;51.186;0.276;2022-12-29T01:16:54;99252.31;;;14.22;76.67
64739;BME280;51175;51.186;0.276;2022-12-29T01:17:25;99245.13;;;14.23;76.41
64739;BME280;51175;51.186;0.276;2022-12-29T01:17:55;99254.19;;;14.22;76.52
64739;BME280;51175;51.186;0.276;2022-12-29T01:18:26;99248.88;;;14.22;76.25
64739;BME280;51175;51.186;0.276;2022-12-29T01:18:57;99238.25;;;14.22;76.45
64739;BME280;51175;51.186;0.276;2022-12-29T01:19:27;99241.69;;;14.22;76.44
64739;BME280;51175;51.186;0.276;2022-12-29T01:19:57;99236.41;;;14.22;76.78
64739;BME280;51175;51.186;0.276;2022-12-29T01:20:28;99249.66;;;14.22;76.59
64739;BME280;51175;51.186;0.276;2022-12-29T01:21:07;99247.78;;;14.23;76.63
64739;BME280;51175;51.186;0.276;2022-12-29T01:21:38;99248.88;;;14.22;76.45
64739;BME280;51175;51.186;0.276;2022-12-29T01:22:08;99246.22;;;14.22;76.50
64739;BME280;51175;51.186;0.276;2022-12-29T01:22:39;99248.88;;;14.22;76.50
64739;BME280;51175;51.186;0.276;2022-12-29T01:23:09;99253.41;;;14.21;76.26
64739;BME280;51175;51.186;0.276;2022-12-29T01:23:39;99245.44;;;14.21;76.41
64739;BME280;51175;51.186;0.276;2022-12-29T01:24:10;99247.31;;;14.21;76.57
64739;BME280;51175;51.186;0.276;2022-12-29T01:24:40;99238.56;;;14.20;76.37
64739;BME280;51175;51.186;0.276;2022-12-29T01:25:10;99242.78;;;14.21;76.42
64739;BME280;51175;51.186;0.276;2022-12-29T01:25:41;99248.09;;;14.21;76.50
64739;BME280;51175;51.186;0.276;2022-12-29T01:26:13;99246.22;;;14.22;76.38
64739;BME280;51175;51.186;0.276;2022-12-29T01:26:43;99253.41;;;14.21;76.43
64739;BME280;51175;51.186;0.276;2022-12-29T01:27:14;99240.91;;;14.22;76.51
64739;BME280;51175;51.186;0.276;2022-12-29T01:27:44;99247.31;;;14.21;76.56
64739;BME280;51175;51.186;0.276;2022-12-29T01:28:14;99242.00;;;14.21;76.69
64739;BME280;51175;51.186;0.276;2022-12-29T01:28:45;99234.81;;;14.21;76.33
64739;BME280;51175;51.186;0.276;2022-12-29T01:29:16;99248.41;;;14.20;76.40
64739;BME280;51175;51.186;0.276;2022-12-29T01:29:47;99235.91;;;14.20;76.36
64739;BME280;51175;51.186;0.276;2022-12-29T01:30:17;99237.47;;;14.21;76.56
64739;BME280;51175;51.186;0.276;2022-12-29T01:30:47;99247.31;;;14.21;76.63
64739;BME280;51175;51.186;0.276;2022-12-29T01:31:18;99242.00;;;14.21;76.36
64739;BME280;51175;51.186;0.276;2022-12-29T01:31:48;99235.91;;;14.20;76.67
64739;BME280;51175;51.186;0.276;2022-12-29T01:32:19;99240.44;;;14.20;76.39
64739;BME280;51175;51.186;0.276;2022-12-29T01:32:50;99234.06;;;14.21;76.59
64739;BME280;51175;51.186;0.276;2022-12-29T01:33:20;99222.97;;;14.19;76.64
64739;BME280;51175;51.186;0.276;2022-12-29T01:33:50;99242.34;;;14.19;76.42
64739;BME280;51175;51.186;0.276;2022-12-29T01:34:21;99227.94;;;14.20;76.58
64739;BME280;51175;51.186;0.276;2022-12-29T01:34:51;99245.75;;;14.20;76.25
64739;BME280;51175;51.186;0.276;2022-12-29T01:35:21;99239.69;;;14.19;76.23
64739;BME280;51175;51.186;0.276;2022-12-29T01:35:52;99243.09;;;14.20;76.07
64739;BME280;51175;51.186;0.276;2022-12-29T01:36:23;99226.41;;;14.19;76.48
64739;BME280;51175;51.186;0.276;2022-12-29T01:36:54;99234.38;;;14.19;76.40
64739;BME280;51175;51.186;0.276;2022-12-29T01:37:24;99244.19;;;14.19;76.22
64739;BME280;51175;51.186;0.276;2022-12-29T01:37:54;99237.03;;;14.19;76.48
64739;BME280;51175;51.186;0.276;2022-12-29T01:38:25;99239.69;;;14.19;76.23
64739;BME280;51175;51.186;0.276;2022-12-29T01:38:55;99245.00;;;14.19;76.68
64739;BME280;51175;51.186;0.276;2022-12-29T01:39:25;99243.41;;;14.18;76.61
64739;BME280;51175;51.186;0.276;2022-12-29T01:39:56;99234.38;;;14.19;76.30
64739;BME280;51175;51.186;0.276;2022-12-29T01:40:26;99238.09;;;14.18;76.39
64739;BME280;51175;51.186;0.276;2022-12-29T01:40:57;99240.75;;;14.18;76.48
64739;BME280;51175;51.186;0.276;2022-12-29T01:41:28;99230.91;;;14.19;76.59
64739;BME280;51175;51.186;0.276;2022-12-29T01:41:59;99234.38;;;14.19;76.48
64739;BME280;51175;51.186;0.276;2022-12-29T01:42:29;99225.63;;;14.19;76.42
64739;BME280;51175;51.186;0.276;2022-12-29T01:42:59;99233.56;;;14.19;76.52
64739;BME280;51175;51.186;0.276;2022-12-29T01:43:44;99222.97;;;14.19;76.26
64739;BME280;51175;51.186;0.276;2022-12-29T01:45:19;99226.72;;;14.18;76.33
64739;BME280;51175;51.186;0.276;2022-12-29T01:45:52;99232.03;;;14.18;76.50
64739;BME280;51175;51.186;0.276;2022-12-29T01:46:36;99227.47;;;14.18;76.44
64739;BME280;51175;51.186;0.276;2022-12-29T01:47:08;99230.44;;;14.17;76.33
64739;BME280;51175;51.186;0.276;2022-12-29T01:47:52;99223.28;;;14.17;76.37
64739;BME280;51175;51.186;0.276;2022-12-29T01:48:23;99244.50;;;14.17;76.32
64739;BME280;51175;51.186;0.276;2022-12-29T01:49:03;99235.75;;;14.17;76.58
64739;BME280;51175;51.186;0.276;2022-12-29T01:49:34;99242.97;;;14.16;76.55
64739;BME280;51175;51.186;0.276;2022-12-29T01:50:20;99234.22;;;14.15;76.79
64739;BME280;51175;51.186;0.276;2022-12-29T01:50:53;99225.44;;;14.15;76.52
64739;BME280;51175;51.186;0.276;2022-12-29T01:51:25;99222.78;;;14.15;76.37
64739;BME280;51175;51.186;0.276;2022-12-29T01:52:06;99230.75;;;14.15;76.51
64739;BME280;51175;51.186;0.276;2022-12-29T01:52:41;99229.22;;;14.14;76.31
64739;BME280;51175;51.186;0.276;2022-12-29T01:53:21;99231.06;;;14.13;76.54
64739;BME280;51175;51.186;0.276;2022-12-29T01:53:56;99239.84;;;14.14;76.44
64739;BME280;51175;51.186;0.276;2022-12-29T01:54:31;99227.66;;;14.13;76.42
64739;BME280;51175;51.186;0.276;2022-12-29T01:55:05;99237.50;;;14.12;76.37
64739;BME280;51175;51.186;0.276;2022-12-29T01:55:40;99234.84;;;14.12;76.74
64739;BME280;51175;51.186;0.276;2022-12-29T01:56:15;99229.53;;;14.12;76.48
64739;BME280;51175;51.186;0.276;2022-12-29T01:56:47;99229.53;;;14.12;76.39
64739;BME280;51175;51.186;0.276;2022-12-29T01:57:22;99230.63;;;14.11;76.57
64739;BME280;51175;51.186;0.276;2022-12-29T01:57:58;99238.59;;;14.11;76.40
64739;BME280;51175;51.186;0.276;2022-12-29T01:58:32;99244.66;;;14.12;76.64
64739;BME280;51175;51.186;0.276;2022-12-29T01:59:07;99238.59;;;14.11;76.62
64739;BME280;51175;51.186;0.276;2022-12-29T01:59:49;99251.06;;;14.11;76.26
64739;BME280;51175;51.186;0.276;2022-12-29T02:00:22;99245.75;;;14.11;76.53
64739;BME280;51175;51.186;0.276;2022-12-29T02:00:52;99249.22;;;14.11;76.66
64739;BME280;51175;51.186;0.276;2022-12-29T02:01:22;99256.38;;;14.11;76.69
64739;BME280;51175;51.186;0.276;2022-12-29T02:01:53;99251.88;;;14.11;76.43
64739;BME280;51175;51.186;0.276;2022-12-29T02:02:24;99252.94;;;14.10;76.55
64739;BME280;51175;51.186;0.276;2022-12-29T02:02:55;99254.84;;;14.10;76.32
64739;BME280;51175;51.186;0.276;2022-12-29T02:03:28;99243.91;;;14.11;76.53
64739;BME280;51175;51.186;0.276;2022-12-29T02:04:01;99251.06;;;14.11;76.29
64739;BME280;51175;51.186;0.276;2022-12-29T02:04:32;99250.28;;;14.10;76.49
64739;BME280;51175;51.186;0.276;2022-12-29T02:05:18;99248.41;;;14.11;76.37
64739;BME280;51175;51.186;0.276;2022-12-29T02:05:57;99260.16;;;14.10;76.53
64739;BME280;51175;51.186;0.276;2022-12-29T02:06:36;99250.28;;;14.10;76.34
64739;BME280;51175;51.186;0.276;2022-12-29T02:07:13;99268.09;;;14.10;76.27
64739;BME280;51175;51.186;0.276;2022-12-29T02:07:46;99240.78;;;14.09;76.26
64739;BME280;51175;51.186;0.276;2022-12-29T02:08:19;99252.50;;;14.08;76.19
64739;BME280;51175;51.186;0.276;2022-12-29T02:08:52;99248.75;;;14.09;76.57
64739;BME280;51175;51.186;0.276;2022-12-29T02:09:23;99254.03;;;14.09;76.42
64739;BME280;51175;51.186;0.276;2022-12-29T02:09:54;99246.41;;;14.08;76.48
64739;BME280;51175;51.186;0.276;2022-12-29T02:10:27;99254.84;;;14.10;76.71
64739;BME280;51175;51.186;0.276;2022-12-29T02:11:00;99255.16;;;14.08;76.45
64739;BME280;51175;51.186;0.276;2022-12-29T02:11:31;99253.25;;;14.09;76.56
64739;BME280;51175;51.186;0.276;2022-12-29T02:12:02;99259.34;;;14.09;76.48
64739;BME280;51175;51.186;0.276;2022-12-29T02:12:33;99255.91;;;14.09;76.52
64739;BME280;51175;51.186;0.276;2022-12-29T02:13:03;99257.50;;;14.10;76.49
64739;BME280;51175;51.186;0.276;2022-12-29T02:13:34;99250.59;;;14.09;76.68
64739;BME280;51175;51.186;0.276;2022-12-29T02:14:11;99254.03;;;14.09;76.67
64739;BME280;51175;51.186;0.276;2022-12-29T02:14:42;99264.66;;;14.09;76.69
64739;BME280;51175;51.186;0.276;2022-12-29T02:15:13;99265.47;;;14.10;76.46
64739;BME280;51175;51.186;0.276;2022-12-29T02:16:12;99254.84;;;14.10;76.48
64739;BME280;51175;51.186;0.276;2022-12-29T02:18:03;99251.38;;;14.09;76.71
64739;BME280;51175;51.186;0.276;2022-12-29T02:22:34;99247.81;;;14.05;76.55
64739;BME280;51175;51.186;0.276;2022-12-29T02:24:35;99256.09;;;14.03;76.60
64739;BME280;51175;51.186;0.276;2022-12-29T02:28:31;99244.22;;;14.01;76.85
64739;BME280;51175;51.186;0.276;2022-12-29T02:30:04;99256.25;;;13.98;76.69
64739;BME280;51175;51.186;0.276;2022-12-29T02:30:40;99252.78;;;13.98;76.74
64739;BME280;51175;51.186;0.276;2022-12-29T02:31:44;99238.41;;;13.99;76.81
64739;BME280;51175;51.186;0.276;2022-12-29T02:32:39;99236.06;;;13.97;76.83
64739;BME280;51175;51.186;0.276;2022-12-29T02:33:28;99241.38;;;13.97;76.93
64739;BME280;51175;51.186;0.276;2022-12-29T02:34:55;99231.88;;;13.96;76.74
64739;BME280;51175;51.186;0.276;2022-12-29T02:35:25;99236.38;;;13.96;76.76
64739;BME280;51175;51.186;0.276;2022-12-29T02:36:07;99209.84;;;13.96;76.62
64739;BME280;51175;51.186;0.276;2022-12-29T02:38:12;99214.41;;;13.95;76.87
64739;BME280;51175;51.186;0.276;2022-12-29T02:39:04;99237.50;;;13.95;76.92
64739;BME280;51175;51.186;0.276;2022-12-29T02:40:11;99226.88;;;13.95;76.76
64739;BME280;51175;51.186;0.276;2022-12-29T02:41:51;99222.66;;;13.94;76.97
64739;BME280;51175;51.186;0.276;2022-12-29T02:43:59;99220.03;;;13.94;77.06
64739;BME280;51175;51.186;0.276;2022-12-29T02:44:22;99224.53;;;13.93;76.96
64739;BME280;51175;51.186;0.276;2022-12-29T02:45:26;99232.50;;;13.93;77.08
64739;BME280;51175;51.186;0.276;2022-12-29T02:46:12;99226.41;;;13.93;77.11
64739;BME280;51175;51.186;0.276;2022-12-29T02:47:38;99234.38;;;13.93;76.99
64739;BME280;51175;51.186;0.276;2022-12-29T02:50:01;99222.66;;;13.94;76.97
64739;BME280;51175;51.186;0.276;2022-12-29T02:50:37;99218.75;;;13.91;76.80
64739;BME280;51175;51.186;0.276;2022-12-29T02:51:31;99210.47;;;13.93;76.90
64739;BME280;51175;51.186;0.276;2022-12-29T02:52:14;99215.03;;;13.92;76.87
64739;BME280;51175;51.186;0.276;2022-12-29T02:52:51;99210.03;;;13.90;77.07
64739;BME280;51175;51.186;0.276;2022-12-29T02:53:23;99207.38;;;13.90;77.05
64739;BME280;51175;51.186;0.276;2022-12-29T02:54:15;99220.34;;;13.92;76.95
64739;BME280;51175;51.186;0.276;2022-12-29T02:55:04;99219.22;;;13.93;76.95
64739;BME280;51175;51.186;0.276;2022-12-29T02:55:36;99213.44;;;13.91;77.03
64739;BME280;51175;51.186;0.276;2022-12-29T02:56:07;99210.78;;;13.91;77.00
64739;BME280;51175;51.186;0.276;2022-12-29T02:56:37;99207.38;;;13.90;77.02
64739;BME280;51175;51.186;0.276;2022-12-29T02:57:32;99222.19;;;13.92;77.05
64739;BME280;51175;51.186;0.276;2022-12-29T02:58:16;99224.84;;;13.92;76.87
64739;BME280;51175;51.186;0.276;2022-12-29T02:58:46;99210.03;;;13.90;77.04
64739;BME280;51175;51.186;0.276;2022-12-29T02:59:17;99218.00;;;13.90;76.75
64739;BME280;51175;51.186;0.276;2022-12-29T03:00:05;99218.00;;;13.90;76.95
64739;BME280;51175;51.186;0.276;2022-12-29T03:00:42;99218.00;;;13.90;76.93
64739;BME280;51175;51.186;0.276;2022-12-29T03:01:29;99215.03;;;13.92;76.99
64739;BME280;51175;51.186;0.276;2022-12-29T03:04:15;99211.09;;;13.89;77.15
64739;BME280;51175;51.186;0.276;2022-12-29T03:06:22;99219.06;;;13.89;76.95
64739;BME280;51175;51.186;0.276;2022-12-29T03:07:03;99217.50;;;13.88;76.91
64739;BME280;51175;51.186;0.276;2022-12-29T03:10:01;99218.31;;;13.89;76.89
64739;BME280;51175;51.186;0.276;2022-12-29T03:11:19;99217.81;;;13.87;77.06
64739;BME280;51175;51.186;0.276;2022-12-29T03:12:59;99219.38;;;13.88;76.79
64739;BME280;51175;51.186;0.276;2022-12-29T03:13:52;99210.66;;;13.87;76.74
64739;BME280;51175;51.186;0.276;2022-12-29T03:14:55;99218.63;;;13.87;76.79
64739;BME280;51175;51.186;0.276;2022-12-29T03:16:44;99214.38;;;13.86;76.99
64739;BME280;51175;51.186;0.276;2022-12-29T03:17:28;99208.31;;;13.86;76.92
64739;BME280;51175;51.186;0.276;2022-12-29T03:19:51;99208.31;;;13.86;76.90
64739;BME280;51175;51.186;0.276;2022-12-29T03:20:32;99218.94;;;13.86;77.16
64739;BME280;51175;51.186;0.276;2022-12-29T03:22:24;99223.44;;;13.85;77.04
64739;BME280;51175;51.186;0.276;2022-12-29T03:23:02;99222.66;;;13.85;77.02
64739;BME280;51175;51.186;0.276;2022-12-29T03:23:34;99216.59;;;13.84;76.95
64739;BME280;51175;51.186;0.276;2022-12-29T03:24:06;99227.97;;;13.85;77.20
64739;BME280;51175;51.186;0.276;2022-12-29T03:24:40;99229.84;;;13.84;77.09
64739;BME280;51175;51.186;0.276;2022-12-29T03:25:20;99229.06;;;13.84;76.81
64739;BME280;51175;51.186;0.276;2022-12-29T03:25:55;99233.28;;;13.85;77.08
64739;BME280;51175;51.186;0.276;2022-12-29T03:26:26;99220.00;;;13.85;77.09
64739;BME280;51175;51.186;0.276;2022-12-29T03:26:58;99230.63;;;13.85;77.16
64739;BME280;51175;51.186;0.276;2022-12-29T03:27:33;99227.97;;;13.85;77.20
64739;BME280;51175;51.186;0.276;2022-12-29T03:28:09;99235.94;;;13.85;77.05
64739;BME280;51175;51.186;0.276;2022-12-29T03:28:46;99244.69;;;13.85;77.11
64739;BME280;51175;51.186;0.276;2022-12-29T03:29:20;99234.06;;;13.85;76.82
64739;BME280;51175;51.186;0.276;2022-12-29T03:29:54;99234.06;;;13.85;77.09
64739;BME280;51175;51.186;0.276;2022-12-29T03:30:28;99234.84;;;13.86;77.10
64739;BME280;51175;51.186;0.276;2022-12-29T03:31:03;99238.25;;;13.86;76.77
64739;BME280;51175;51.186;0.276;2022-12-29T03:31:35;99242.50;;;13.87;77.06
64739;BME280;51175;51.186;0.276;2022-12-29T03:32:09;99240.91;;;13.86;76.98
64739;BME280;51175;51.186;0.276;2022-12-29T03:32:55;99240.91;;;13.86;76.99
64739;BME280;51175;51.186;0.276;2022-12-29T03:33:28;99254.97;;;13.87;76.83
64739;BME280;51175;51.186;0.276;2022-12-29T03:34:00;99237.19;;;13.87;77.06
64739;BME280;51175;51.186;0.276;2022-12-29T03:34:32;99241.72;;;13.87;76.98
64739;BME280;51175;51.186;0.276;2022-12-29T03:35:05;99239.84;;;13.87;76.78
64739;BME280;51175;51.186;0.276;2022-12-29T03:35:38;99243.25;;;13.88;76.96
64739;BME280;51175;51.186;0.276;2022-12-29T03:36:16;99248.56;;;13.88;76.90
64739;BME280;51175;51.186;0.276;2022-12-29T03:36:57;99244.38;;;13.87;76.69
64739;BME280;51175;51.186;0.276;2022-12-29T03:37:36;99244.06;;;13.88;76.65
64739;BME280;51175;51.186;0.276;2022-12-29T03:38:55;99241.41;;;13.88;76.70
64739;BME280;51175;51.186;0.276;2022-12-29T03:39:29;99244.06;;;13.88;76.87
64739;BME280;51175;51.186;0.276;2022-12-29T03:39:59;99246.72;;;13.88;76.72
64739;BME280;51175;51.186;0.276;2022-12-29T03:40:31;99240.59;;;13.88;76.84
64739;BME280;51175;51.186;0.276;2022-12-29T03:41:07;99242.50;;;13.87;76.71
64739;BME280;51175;51.186;0.276;2022-12-29T03:41:40;99235.31;;;13.88;76.49
64739;BME280;51175;51.186;0.276;2022-12-29T03:42:15;99235.31;;;13.88;76.71
64739;BME280;51175;51.186;0.276;2022-12-29T03:42:47;99238.75;;;13.88;76.84